Terminal Aerodrome Forecast
Issued by NWS

Home | Current Version | Previous Version | Text Only | Print | Product List | Glossary On
Versions: 1 2 3 4 5 6 7 8 9 10 11 12 13 14 15 16 17 18 19 20 21 22 23 24 25 26 27 28 29 30 31
000
FTUS42 KCAE 250200 AAA
TAFCUB
TAF AMD
KCUB 250243Z 2503/2524 13006KT P6SM SCT150
     FM251000 14005KT P6SM SCT008 BKN015
     FM251400 23010KT P6SM SCT015 BKN050
     FM251700 25015G24KT P6SM SCT100
     FM252300 26008KT P6SM SCT250=

USA.gov is the U.S. government's official web portal to all federal, state and local government web resources and services.